sensor_id;sensor_type;location;lat;lon;timestamp;temperature;humidity
46400;DHT22;32104;50.838;4.388;2024-02-21T00:02:30;10.10;99.90
46400;DHT22;32104;50.838;4.388;2024-02-21T00:05:56;10.10;99.90
46400;DHT22;32104;50.838;4.388;2024-02-21T00:09:23;10.30;99.90
46400;DHT22;32104;50.838;4.388;2024-02-21T00:12:45;10.20;99.90
46400;DHT22;32104;50.838;4.388;2024-02-21T00:16:03;10.30;99.90
46400;DHT22;32104;50.838;4.388;2024-02-21T00:19:17;10.30;99.90
46400;DHT22;32104;50.838;4.388;2024-02-21T00:22:13;10.30;99.90
46400;DHT22;32104;50.838;4.388;2024-02-21T00:25:00;10.20;99.90
46400;DHT22;32104;50.838;4.388;2024-02-21T00:27:28;10.10;99.90
46400;DHT22;32104;50.838;4.388;2024-02-21T00:30:08;10.10;99.90
46400;DHT22;32104;50.838;4.388;2024-02-21T00:33:01;10.10;99.90
46400;DHT22;32104;50.838;4.388;2024-02-21T00:35:57;10.30;99.90
46400;DHT22;32104;50.838;4.388;2024-02-21T00:38:26;10.20;99.90
46400;DHT22;32104;50.838;4.388;2024-02-21T00:40:53;10.20;99.90
46400;DHT22;32104;50.838;4.388;2024-02-21T00:43:23;10.10;99.90
46400;DHT22;32104;50.838;4.388;2024-02-21T00:45:50;10.20;99.90
46400;DHT22;32104;50.838;4.388;2024-02-21T00:48:19;10.20;99.90
46400;DHT22;32104;50.838;4.388;2024-02-21T00:50:49;10.20;99.90
46400;DHT22;32104;50.838;4.388;2024-02-21T00:53:22;10.30;99.90
46400;DHT22;32104;50.838;4.388;2024-02-21T00:55:52;10.30;99.90
46400;DHT22;32104;50.838;4.388;2024-02-21T00:58:23;10.20;99.90
46400;DHT22;32104;50.838;4.388;2024-02-21T01:00:58;10.20;99.90
46400;DHT22;32104;50.838;4.388;2024-02-21T01:03:33;10.30;99.90
46400;DHT22;32104;50.838;4.388;2024-02-21T01:06:06;10.30;99.90
46400;DHT22;32104;50.838;4.388;2024-02-21T01:08:42;10.30;99.90
46400;DHT22;32104;50.838;4.388;2024-02-21T01:11:22;10.40;99.90
46400;DHT22;32104;50.838;4.388;2024-02-21T01:13:48;10.40;99.90
46400;DHT22;32104;50.838;4.388;2024-02-21T01:16:23;10.40;99.90
46400;DHT22;32104;50.838;4.388;2024-02-21T01:18:57;10.30;99.90
46400;DHT22;32104;50.838;4.388;2024-02-21T01:21:25;10.30;99.90
46400;DHT22;32104;50.838;4.388;2024-02-21T01:23:59;10.20;99.90
46400;DHT22;32104;50.838;4.388;2024-02-21T01:26:30;10.10;99.90
46400;DHT22;32104;50.838;4.388;2024-02-21T01:29:08;10.10;99.90
46400;DHT22;32104;50.838;4.388;2024-02-21T01:31:41;10.00;99.90
46400;DHT22;32104;50.838;4.388;2024-02-21T01:34:13;10.10;99.90
46400;DHT22;32104;50.838;4.388;2024-02-21T01:36:40;10.00;99.90
46400;DHT22;32104;50.838;4.388;2024-02-21T01:39:11;10.00;99.90
46400;DHT22;32104;50.838;4.388;2024-02-21T01:41:43;10.00;99.90
46400;DHT22;32104;50.838;4.388;2024-02-21T01:44:14;9.90;99.90
46400;DHT22;32104;50.838;4.388;2024-02-21T01:50:15;10.00;99.90
46400;DHT22;32104;50.838;4.388;2024-02-21T01:52:46;9.90;99.90
46400;DHT22;32104;50.838;4.388;2024-02-21T01:55:24;9.90;99.90
46400;DHT22;32104;50.838;4.388;2024-02-21T01:57:59;9.80;99.90
46400;DHT22;32104;50.838;4.388;2024-02-21T02:00:38;9.90;99.90
46400;DHT22;32104;50.838;4.388;2024-02-21T02:03:06;9.90;99.90
46400;DHT22;32104;50.838;4.388;2024-02-21T02:05:40;9.90;99.90
46400;DHT22;32104;50.838;4.388;2024-02-21T02:08:18;10.00;99.90
46400;DHT22;32104;50.838;4.388;2024-02-21T02:10:46;10.00;99.90
46400;DHT22;32104;50.838;4.388;2024-02-21T02:13:16;10.20;99.90
46400;DHT22;32104;50.838;4.388;2024-02-21T02:15:50;10.00;99.90
46400;DHT22;32104;50.838;4.388;2024-02-21T02:18:36;10.10;99.90
46400;DHT22;32104;50.838;4.388;2024-02-21T02:21:16;10.10;99.90
46400;DHT22;32104;50.838;4.388;2024-02-21T02:23:50;10.10;99.90
46400;DHT22;32104;50.838;4.388;2024-02-21T02:26:22;10.00;99.90
46400;DHT22;32104;50.838;4.388;2024-02-21T02:29:43;9.90;99.90
46400;DHT22;32104;50.838;4.388;2024-02-21T02:32:09;10.00;99.90
46400;DHT22;32104;50.838;4.388;2024-02-21T02:34:35;10.20;99.90
46400;DHT22;32104;50.838;4.388;2024-02-21T02:37:08;10.10;99.90
46400;DHT22;32104;50.838;4.388;2024-02-21T02:39:39;10.00;99.90
46400;DHT22;32104;50.838;4.388;2024-02-21T02:42:34;10.00;99.90
46400;DHT22;32104;50.838;4.388;2024-02-21T02:45:16;9.90;99.90
46400;DHT22;32104;50.838;4.388;2024-02-21T02:47:46;10.00;99.90
46400;DHT22;32104;50.838;4.388;2024-02-21T02:50:38;10.10;99.90
46400;DHT22;32104;50.838;4.388;2024-02-21T02:53:06;10.10;99.90
46400;DHT22;32104;50.838;4.388;2024-02-21T02:55:40;10.20;99.90
46400;DHT22;32104;50.838;4.388;2024-02-21T02:58:06;10.30;99.90
46400;DHT22;32104;50.838;4.388;2024-02-21T03:00:56;10.20;99.90
46400;DHT22;32104;50.838;4.388;2024-02-21T03:03:32;10.30;99.90
46400;DHT22;32104;50.838;4.388;2024-02-21T03:05:58;10.30;99.90
46400;DHT22;32104;50.838;4.388;2024-02-21T03:08:32;10.40;99.90
46400;DHT22;32104;50.838;4.388;2024-02-21T03:11:06;10.40;99.90
46400;DHT22;32104;50.838;4.388;2024-02-21T03:14:11;10.30;99.90
46400;DHT22;32104;50.838;4.388;2024-02-21T03:16:38;10.20;99.90
46400;DHT22;32104;50.838;4.388;2024-02-21T03:19:04;10.10;99.90
46400;DHT22;32104;50.838;4.388;2024-02-21T03:21:42;10.20;99.90
46400;DHT22;32104;50.838;4.388;2024-02-21T03:24:12;10.20;99.90
46400;DHT22;32104;50.838;4.388;2024-02-21T03:27:02;10.30;99.90
46400;DHT22;32104;50.838;4.388;2024-02-21T03:29:30;10.20;99.90
46400;DHT22;32104;50.838;4.388;2024-02-21T03:31:59;10.30;99.90
46400;DHT22;32104;50.838;4.388;2024-02-21T03:37:53;10.30;99.90
46400;DHT22;32104;50.838;4.388;2024-02-21T03:40:20;10.30;99.90
46400;DHT22;32104;50.838;4.388;2024-02-21T03:43:03;10.20;99.90
46400;DHT22;32104;50.838;4.388;2024-02-21T03:45:52;10.30;99.90
46400;DHT22;32104;50.838;4.388;2024-02-21T03:48:52;10.20;99.90
46400;DHT22;32104;50.838;4.388;2024-02-21T03:51:27;10.30;99.90
46400;DHT22;32104;50.838;4.388;2024-02-21T03:54:05;10.20;99.90
46400;DHT22;32104;50.838;4.388;2024-02-21T03:56:44;10.10;99.90
46400;DHT22;32104;50.838;4.388;2024-02-21T04:02:09;10.30;99.90
46400;DHT22;32104;50.838;4.388;2024-02-21T04:04:37;10.20;99.90
46400;DHT22;32104;50.838;4.388;2024-02-21T04:07:16;10.20;99.90
46400;DHT22;32104;50.838;4.388;2024-02-21T04:09:47;10.10;99.90
46400;DHT22;32104;50.838;4.388;2024-02-21T04:12:35;10.10;99.90
46400;DHT22;32104;50.838;4.388;2024-02-21T04:15:06;10.00;99.90
46400;DHT22;32104;50.838;4.388;2024-02-21T04:17:42;10.00;99.90
46400;DHT22;32104;50.838;4.388;2024-02-21T04:20:16;9.90;99.90
46400;DHT22;32104;50.838;4.388;2024-02-21T04:22:47;10.00;99.90
46400;DHT22;32104;50.838;4.388;2024-02-21T04:25:16;10.00;99.90
46400;DHT22;32104;50.838;4.388;2024-02-21T04:27:47;10.10;99.90
46400;DHT22;32104;50.838;4.388;2024-02-21T04:30:33;10.30;99.90
46400;DHT22;32104;50.838;4.388;2024-02-21T04:33:07;10.10;99.90
46400;DHT22;32104;50.838;4.388;2024-02-21T04:35:48;10.20;99.90
46400;DHT22;32104;50.838;4.388;2024-02-21T04:38:34;10.00;99.90
46400;DHT22;32104;50.838;4.388;2024-02-21T04:41:02;10.00;99.90
46400;DHT22;32104;50.838;4.388;2024-02-21T04:43:28;10.00;99.90
46400;DHT22;32104;50.838;4.388;2024-02-21T04:46:01;10.00;99.90
46400;DHT22;32104;50.838;4.388;2024-02-21T04:48:28;10.00;99.90
46400;DHT22;32104;50.838;4.388;2024-02-21T04:50:55;10.00;99.90
46400;DHT22;32104;50.838;4.388;2024-02-21T04:53:24;10.00;99.90
46400;DHT22;32104;50.838;4.388;2024-02-21T04:55:50;10.00;99.90
46400;DHT22;32104;50.838;4.388;2024-02-21T04:58:18;10.00;99.90
46400;DHT22;32104;50.838;4.388;2024-02-21T05:01:00;9.90;99.90
46400;DHT22;32104;50.838;4.388;2024-02-21T05:03:35;10.00;99.90
46400;DHT22;32104;50.838;4.388;2024-02-21T05:06:12;10.00;99.90
46400;DHT22;32104;50.838;4.388;2024-02-21T05:08:40;10.00;99.90
46400;DHT22;32104;50.838;4.388;2024-02-21T05:11:15;10.00;99.90
46400;DHT22;32104;50.838;4.388;2024-02-21T05:13:43;10.10;99.90
46400;DHT22;32104;50.838;4.388;2024-02-21T05:16:16;10.10;99.90
46400;DHT22;32104;50.838;4.388;2024-02-21T05:18:46;10.10;99.90
46400;DHT22;32104;50.838;4.388;2024-02-21T05:21:20;10.10;99.90
46400;DHT22;32104;50.838;4.388;2024-02-21T05:23:55;10.10;99.90
46400;DHT22;32104;50.838;4.388;2024-02-21T05:26:25;10.10;99.90
46400;DHT22;32104;50.838;4.388;2024-02-21T05:28:57;10.10;99.90
46400;DHT22;32104;50.838;4.388;2024-02-21T05:31:25;9.90;99.90
46400;DHT22;32104;50.838;4.388;2024-02-21T05:33:59;9.90;99.90
46400;DHT22;32104;50.838;4.388;2024-02-21T05:36:41;9.90;99.90
46400;DHT22;32104;50.838;4.388;2024-02-21T05:39:29;9.90;99.90
46400;DHT22;32104;50.838;4.388;2024-02-21T05:41:56;10.00;99.90
46400;DHT22;32104;50.838;4.388;2024-02-21T05:44:37;10.10;99.90
46400;DHT22;32104;50.838;4.388;2024-02-21T05:47:04;10.10;99.90
46400;DHT22;32104;50.838;4.388;2024-02-21T05:49:40;10.00;99.90
46400;DHT22;32104;50.838;4.388;2024-02-21T05:52:08;10.10;99.90
46400;DHT22;32104;50.838;4.388;2024-02-21T05:54:39;10.10;99.90
46400;DHT22;32104;50.838;4.388;2024-02-21T05:57:06;10.10;99.90
46400;DHT22;32104;50.838;4.388;2024-02-21T05:59:34;10.10;99.90
46400;DHT22;32104;50.838;4.388;2024-02-21T06:02:07;10.10;99.90
46400;DHT22;32104;50.838;4.388;2024-02-21T06:04:34;10.00;99.90
46400;DHT22;32104;50.838;4.388;2024-02-21T06:07:04;9.90;99.90
46400;DHT22;32104;50.838;4.388;2024-02-21T06:09:30;9.80;99.90
46400;DHT22;32104;50.838;4.388;2024-02-21T06:12:01;9.80;99.90
46400;DHT22;32104;50.838;4.388;2024-02-21T06:14:27;9.90;99.90
46400;DHT22;32104;50.838;4.388;2024-02-21T06:17:06;10.00;99.90
46400;DHT22;32104;50.838;4.388;2024-02-21T06:19:32;10.00;99.90
46400;DHT22;32104;50.838;4.388;2024-02-21T06:22:01;9.90;99.90
46400;DHT22;32104;50.838;4.388;2024-02-21T06:24:27;10.10;99.90
46400;DHT22;32104;50.838;4.388;2024-02-21T06:26:54;10.10;99.90
46400;DHT22;32104;50.838;4.388;2024-02-21T06:29:20;10.20;99.90
46400;DHT22;32104;50.838;4.388;2024-02-21T06:32:00;10.10;99.90
46400;DHT22;32104;50.838;4.388;2024-02-21T06:34:26;10.00;99.90
46400;DHT22;32104;50.838;4.388;2024-02-21T06:37:00;10.10;99.90
46400;DHT22;32104;50.838;4.388;2024-02-21T06:39:33;10.20;99.90
46400;DHT22;32104;50.838;4.388;2024-02-21T06:41:58;10.20;99.90
46400;DHT22;32104;50.838;4.388;2024-02-21T06:44:24;10.20;99.90
46400;DHT22;32104;50.838;4.388;2024-02-21T06:47:01;10.20;99.90
46400;DHT22;32104;50.838;4.388;2024-02-21T06:49:30;10.20;99.90
46400;DHT22;32104;50.838;4.388;2024-02-21T06:51:58;10.20;99.90
46400;DHT22;32104;50.838;4.388;2024-02-21T06:54:30;10.20;99.90
46400;DHT22;32104;50.838;4.388;2024-02-21T06:57:10;10.20;99.90
46400;DHT22;32104;50.838;4.388;2024-02-21T06:59:49;10.10;99.90
46400;DHT22;32104;50.838;4.388;2024-02-21T07:02:18;10.10;99.90
46400;DHT22;32104;50.838;4.388;2024-02-21T07:04:47;10.00;99.90
46400;DHT22;32104;50.838;4.388;2024-02-21T07:07:35;9.90;99.90
46400;DHT22;32104;50.838;4.388;2024-02-21T07:10:03;9.80;99.90
46400;DHT22;32104;50.838;4.388;2024-02-21T07:12:32;9.90;99.90
46400;DHT22;32104;50.838;4.388;2024-02-21T07:15:21;9.90;99.90
46400;DHT22;32104;50.838;4.388;2024-02-21T07:17:50;9.80;99.90
46400;DHT22;32104;50.838;4.388;2024-02-21T07:20:22;9.90;99.90
46400;DHT22;32104;50.838;4.388;2024-02-21T07:22:55;9.80;99.90
46400;DHT22;32104;50.838;4.388;2024-02-21T07:25:33;9.80;99.90
46400;DHT22;32104;50.838;4.388;2024-02-21T07:28:06;9.80;99.90
46400;DHT22;32104;50.838;4.388;2024-02-21T07:30:38;9.70;99.90
46400;DHT22;32104;50.838;4.388;2024-02-21T07:33:09;9.60;99.90
46400;DHT22;32104;50.838;4.388;2024-02-21T07:36:05;9.60;99.90
46400;DHT22;32104;50.838;4.388;2024-02-21T07:38:53;9.60;99.90
46400;DHT22;32104;50.838;4.388;2024-02-21T07:41:40;9.60;99.90
46400;DHT22;32104;50.838;4.388;2024-02-21T07:44:51;9.70;99.90
46400;DHT22;32104;50.838;4.388;2024-02-21T07:47:37;9.70;99.90
46400;DHT22;32104;50.838;4.388;2024-02-21T07:50:04;9.80;99.90
46400;DHT22;32104;50.838;4.388;2024-02-21T07:52:36;9.90;99.90
46400;DHT22;32104;50.838;4.388;2024-02-21T07:55:08;9.90;99.90
46400;DHT22;32104;50.838;4.388;2024-02-21T07:57:38;9.80;99.90
46400;DHT22;32104;50.838;4.388;2024-02-21T08:00:07;9.80;99.90
46400;DHT22;32104;50.838;4.388;2024-02-21T08:02:45;9.90;99.90
46400;DHT22;32104;50.838;4.388;2024-02-21T08:05:23;9.90;99.90
46400;DHT22;32104;50.838;4.388;2024-02-21T08:08:11;10.00;99.90
46400;DHT22;32104;50.838;4.388;2024-02-21T08:10:50;9.90;99.90
46400;DHT22;32104;50.838;4.388;2024-02-21T08:13:21;10.00;99.90
46400;DHT22;32104;50.838;4.388;2024-02-21T08:16:11;10.20;99.90
46400;DHT22;32104;50.838;4.388;2024-02-21T08:18:40;10.30;99.90
46400;DHT22;32104;50.838;4.388;2024-02-21T08:21:16;10.20;99.90
46400;DHT22;32104;50.838;4.388;2024-02-21T08:23:51;10.20;99.90
46400;DHT22;32104;50.838;4.388;2024-02-21T08:26:47;10.10;99.90
46400;DHT22;32104;50.838;4.388;2024-02-21T08:29:26;10.00;99.90
46400;DHT22;32104;50.838;4.388;2024-02-21T08:32:00;9.90;99.90
46400;DHT22;32104;50.838;4.388;2024-02-21T08:34:50;10.00;99.90
46400;DHT22;32104;50.838;4.388;2024-02-21T08:37:27;10.10;99.90
46400;DHT22;32104;50.838;4.388;2024-02-21T08:39:56;10.10;99.90
46400;DHT22;32104;50.838;4.388;2024-02-21T08:42:39;10.10;99.90
46400;DHT22;32104;50.838;4.388;2024-02-21T08:45:30;10.00;99.90
46400;DHT22;32104;50.838;4.388;2024-02-21T08:48:01;10.00;99.90
46400;DHT22;32104;50.838;4.388;2024-02-21T08:50:38;10.00;99.90
46400;DHT22;32104;50.838;4.388;2024-02-21T08:53:07;9.90;99.90
46400;DHT22;32104;50.838;4.388;2024-02-21T08:55:50;9.90;99.90
46400;DHT22;32104;50.838;4.388;2024-02-21T08:58:20;10.00;99.90
46400;DHT22;32104;50.838;4.388;2024-02-21T09:01:01;10.10;99.90
46400;DHT22;32104;50.838;4.388;2024-02-21T09:03:44;10.20;99.90
46400;DHT22;32104;50.838;4.388;2024-02-21T09:06:17;10.30;99.90
46400;DHT22;32104;50.838;4.388;2024-02-21T09:08:57;10.20;99.90
46400;DHT22;32104;50.838;4.388;2024-02-21T09:11:58;10.30;99.90
46400;DHT22;32104;50.838;4.388;2024-02-21T09:14:49;10.30;99.90
46400;DHT22;32104;50.838;4.388;2024-02-21T09:20:21;10.30;99.90
46400;DHT22;32104;50.838;4.388;2024-02-21T09:23:21;10.50;99.90
46400;DHT22;32104;50.838;4.388;2024-02-21T09:25:53;10.50;99.90
46400;DHT22;32104;50.838;4.388;2024-02-21T09:28:27;10.40;99.90
46400;DHT22;32104;50.838;4.388;2024-02-21T09:31:07;10.60;99.90
46400;DHT22;32104;50.838;4.388;2024-02-21T09:33:59;10.40;99.90
46400;DHT22;32104;50.838;4.388;2024-02-21T09:36:31;10.60;99.90
46400;DHT22;32104;50.838;4.388;2024-02-21T09:39:10;10.60;99.90
46400;DHT22;32104;50.838;4.388;2024-02-21T09:41:50;10.70;99.90
46400;DHT22;32104;50.838;4.388;2024-02-21T09:44:28;10.70;99.90
46400;DHT22;32104;50.838;4.388;2024-02-21T09:47:44;10.70;99.90
46400;DHT22;32104;50.838;4.388;2024-02-21T09:50:39;10.80;99.90
46400;DHT22;32104;50.838;4.388;2024-02-21T09:53:39;10.90;99.90
46400;DHT22;32104;50.838;4.388;2024-02-21T09:56:13;10.80;99.90
46400;DHT22;32104;50.838;4.388;2024-02-21T09:58:46;10.70;99.90
46400;DHT22;32104;50.838;4.388;2024-02-21T10:01:13;10.80;99.90
46400;DHT22;32104;50.838;4.388;2024-02-21T10:04:17;10.90;99.90
46400;DHT22;32104;50.838;4.388;2024-02-21T10:07:16;11.00;99.90
46400;DHT22;32104;50.838;4.388;2024-02-21T10:10:09;11.00;99.90
46400;DHT22;32104;50.838;4.388;2024-02-21T10:12:57;11.00;99.90
46400;DHT22;32104;50.838;4.388;2024-02-21T10:15:33;11.10;99.90
46400;DHT22;32104;50.838;4.388;2024-02-21T10:18:01;11.20;99.90
46400;DHT22;32104;50.838;4.388;2024-02-21T10:21:12;11.30;99.90
46400;DHT22;32104;50.838;4.388;2024-02-21T10:23:53;11.30;99.90
46400;DHT22;32104;50.838;4.388;2024-02-21T10:26:59;11.40;99.90
46400;DHT22;32104;50.838;4.388;2024-02-21T10:29:54;11.30;99.90
46400;DHT22;32104;50.838;4.388;2024-02-21T10:32:23;11.40;99.90
46400;DHT22;32104;50.838;4.388;2024-02-21T10:35:07;11.20;99.90
46400;DHT22;32104;50.838;4.388;2024-02-21T10:37:41;11.30;99.90
46400;DHT22;32104;50.838;4.388;2024-02-21T10:40:11;11.30;99.90
46400;DHT22;32104;50.838;4.388;2024-02-21T10:42:48;11.30;99.90
46400;DHT22;32104;50.838;4.388;2024-02-21T10:45:19;11.30;99.90
46400;DHT22;32104;50.838;4.388;2024-02-21T10:48:15;11.50;99.90
46400;DHT22;32104;50.838;4.388;2024-02-21T10:50:57;11.50;99.90
46400;DHT22;32104;50.838;4.388;2024-02-21T10:53:45;11.50;99.90
46400;DHT22;32104;50.838;4.388;2024-02-21T10:56:31;11.50;99.90
46400;DHT22;32104;50.838;4.388;2024-02-21T10:59:04;11.40;99.90
46400;DHT22;32104;50.838;4.388;2024-02-21T11:01:58;11.50;99.90
46400;DHT22;32104;50.838;4.388;2024-02-21T11:05:07;11.60;99.90
46400;DHT22;32104;50.838;4.388;2024-02-21T11:08:02;11.80;99.90
46400;DHT22;32104;50.838;4.388;2024-02-21T11:10:56;11.80;99.90
46400;DHT22;32104;50.838;4.388;2024-02-21T11:13:42;11.90;99.90
46400;DHT22;32104;50.838;4.388;2024-02-21T11:16:49;11.90;99.90
46400;DHT22;32104;50.838;4.388;2024-02-21T11:19:36;11.70;99.90
46400;DHT22;32104;50.838;4.388;2024-02-21T11:22:15;11.50;99.90
46400;DHT22;32104;50.838;4.388;2024-02-21T11:25:43;11.40;99.90
46400;DHT22;32104;50.838;4.388;2024-02-21T11:28:25;11.30;99.90
46400;DHT22;32104;50.838;4.388;2024-02-21T11:31:16;11.20;99.90
46400;DHT22;32104;50.838;4.388;2024-02-21T11:33:47;11.10;99.90
46400;DHT22;32104;50.838;4.388;2024-02-21T11:36:26;11.00;99.90
46400;DHT22;32104;50.838;4.388;2024-02-21T11:39:17;11.00;99.90
46400;DHT22;32104;50.838;4.388;2024-02-21T11:42:16;11.10;99.90
46400;DHT22;32104;50.838;4.388;2024-02-21T11:45:14;11.20;99.90
46400;DHT22;32104;50.838;4.388;2024-02-21T11:48:03;11.10;99.90
46400;DHT22;32104;50.838;4.388;2024-02-21T11:51:27;11.30;99.90
46400;DHT22;32104;50.838;4.388;2024-02-21T11:54:31;11.40;99.90
46400;DHT22;32104;50.838;4.388;2024-02-21T11:57:34;11.20;99.90
46400;DHT22;32104;50.838;4.388;2024-02-21T12:00:46;11.20;99.90
46400;DHT22;32104;50.838;4.388;2024-02-21T12:03:42;11.10;99.90
46400;DHT22;32104;50.838;4.388;2024-02-21T12:06:26;11.00;99.90
46400;DHT22;32104;50.838;4.388;2024-02-21T12:09:25;11.00;99.90
46400;DHT22;32104;50.838;4.388;2024-02-21T12:15:20;11.20;99.90
46400;DHT22;32104;50.838;4.388;2024-02-21T12:17:56;11.10;99.90
46400;DHT22;32104;50.838;4.388;2024-02-21T12:20:44;11.10;99.90
46400;DHT22;32104;50.838;4.388;2024-02-21T12:23:49;11.00;99.90
46400;DHT22;32104;50.838;4.388;2024-02-21T12:26:56;11.00;99.90
46400;DHT22;32104;50.838;4.388;2024-02-21T12:30:00;11.00;99.90
46400;DHT22;32104;50.838;4.388;2024-02-21T12:35:52;11.10;99.90
46400;DHT22;32104;50.838;4.388;2024-02-21T12:41:42;11.20;99.90
46400;DHT22;32104;50.838;4.388;2024-02-21T12:44:24;11.10;99.90
46400;DHT22;32104;50.838;4.388;2024-02-21T12:47:18;11.20;99.90
46400;DHT22;32104;50.838;4.388;2024-02-21T12:52:48;11.00;99.90
46400;DHT22;32104;50.838;4.388;2024-02-21T12:55:50;11.00;99.90
46400;DHT22;32104;50.838;4.388;2024-02-21T12:58:28;11.30;99.90
46400;DHT22;32104;50.838;4.388;2024-02-21T13:04:29;11.20;99.90
46400;DHT22;32104;50.838;4.388;2024-02-21T13:07:18;11.30;99.90
46400;DHT22;32104;50.838;4.388;2024-02-21T13:10:06;11.30;99.90
46400;DHT22;32104;50.838;4.388;2024-02-21T13:12:35;11.30;99.90
46400;DHT22;32104;50.838;4.388;2024-02-21T13:15:04;11.30;99.90
46400;DHT22;32104;50.838;4.388;2024-02-21T13:17:38;11.20;99.90
46400;DHT22;32104;50.838;4.388;2024-02-21T13:20:16;11.40;99.90
46400;DHT22;32104;50.838;4.388;2024-02-21T13:22:44;11.40;99.90
46400;DHT22;32104;50.838;4.388;2024-02-21T13:25:21;11.40;99.90
46400;DHT22;32104;50.838;4.388;2024-02-21T13:28:12;11.40;99.90
46400;DHT22;32104;50.838;4.388;2024-02-21T13:31:00;11.40;99.90
46400;DHT22;32104;50.838;4.388;2024-02-21T13:33:32;11.30;99.90
46400;DHT22;32104;50.838;4.388;2024-02-21T13:36:09;11.30;99.90
46400;DHT22;32104;50.838;4.388;2024-02-21T13:38:41;11.40;99.90
46400;DHT22;32104;50.838;4.388;2024-02-21T13:41:13;11.30;99.90
46400;DHT22;32104;50.838;4.388;2024-02-21T13:43:39;11.20;99.90
46400;DHT22;32104;50.838;4.388;2024-02-21T13:46:24;11.20;99.90
46400;DHT22;32104;50.838;4.388;2024-02-21T13:49:06;11.20;99.90
46400;DHT22;32104;50.838;4.388;2024-02-21T13:51:40;11.10;99.90
46400;DHT22;32104;50.838;4.388;2024-02-21T13:54:11;11.00;99.90
46400;DHT22;32104;50.838;4.388;2024-02-21T13:56:43;11.00;99.90
46400;DHT22;32104;50.838;4.388;2024-02-21T13:59:19;11.00;99.90
46400;DHT22;32104;50.838;4.388;2024-02-21T14:01:52;10.90;99.90
46400;DHT22;32104;50.838;4.388;2024-02-21T14:04:21;10.80;99.90
46400;DHT22;32104;50.838;4.388;2024-02-21T14:06:58;10.80;99.90
46400;DHT22;32104;50.838;4.388;2024-02-21T14:09:27;10.90;99.90
46400;DHT22;32104;50.838;4.388;2024-02-21T14:12:07;10.90;99.90
46400;DHT22;32104;50.838;4.388;2024-02-21T14:15:00;10.90;99.90
46400;DHT22;32104;50.838;4.388;2024-02-21T14:17:49;10.80;99.90
46400;DHT22;32104;50.838;4.388;2024-02-21T14:20:24;10.70;99.90
46400;DHT22;32104;50.838;4.388;2024-02-21T14:23:13;10.60;99.90
46400;DHT22;32104;50.838;4.388;2024-02-21T14:26:02;10.60;99.90
46400;DHT22;32104;50.838;4.388;2024-02-21T14:28:49;10.70;99.90
46400;DHT22;32104;50.838;4.388;2024-02-21T14:31:32;10.60;99.90
46400;DHT22;32104;50.838;4.388;2024-02-21T14:34:06;10.50;99.90
46400;DHT22;32104;50.838;4.388;2024-02-21T14:37:09;10.40;99.90
46400;DHT22;32104;50.838;4.388;2024-02-21T14:40:05;10.40;99.90
46400;DHT22;32104;50.838;4.388;2024-02-21T14:42:40;10.30;99.90
46400;DHT22;32104;50.838;4.388;2024-02-21T14:45:16;10.30;99.90
46400;DHT22;32104;50.838;4.388;2024-02-21T14:51:36;10.40;99.90
46400;DHT22;32104;50.838;4.388;2024-02-21T14:54:27;10.10;99.90
46400;DHT22;32104;50.838;4.388;2024-02-21T14:56:55;10.20;99.90
46400;DHT22;32104;50.838;4.388;2024-02-21T14:59:27;10.10;99.90
46400;DHT22;32104;50.838;4.388;2024-02-21T15:02:05;10.10;99.90
46400;DHT22;32104;50.838;4.388;2024-02-21T15:04:41;10.10;99.90
46400;DHT22;32104;50.838;4.388;2024-02-21T15:07:41;10.20;99.90
46400;DHT22;32104;50.838;4.388;2024-02-21T15:10:57;10.10;99.90
46400;DHT22;32104;50.838;4.388;2024-02-21T15:13:45;10.10;99.90
46400;DHT22;32104;50.838;4.388;2024-02-21T15:16:19;10.10;99.90
46400;DHT22;32104;50.838;4.388;2024-02-21T15:18:58;10.00;99.90
46400;DHT22;32104;50.838;4.388;2024-02-21T15:21:27;10.00;99.90
46400;DHT22;32104;50.838;4.388;2024-02-21T15:23:56;10.10;99.90
46400;DHT22;32104;50.838;4.388;2024-02-21T15:26:52;10.10;99.90
46400;DHT22;32104;50.838;4.388;2024-02-21T15:29:18;10.10;99.90
46400;DHT22;32104;50.838;4.388;2024-02-21T15:31:44;10.00;99.90
46400;DHT22;32104;50.838;4.388;2024-02-21T15:34:23;10.00;99.90
46400;DHT22;32104;50.838;4.388;2024-02-21T15:36:50;10.10;99.90
46400;DHT22;32104;50.838;4.388;2024-02-21T15:39:19;10.10;99.90
46400;DHT22;32104;50.838;4.388;2024-02-21T15:41:50;10.00;99.90
46400;DHT22;32104;50.838;4.388;2024-02-21T15:44:17;10.00;99.90
46400;DHT22;32104;50.838;4.388;2024-02-21T15:46:55;9.90;99.90
46400;DHT22;32104;50.838;4.388;2024-02-21T15:57:14;9.90;99.90
46400;DHT22;32104;50.838;4.388;2024-02-21T16:00:07;9.90;99.90
46400;DHT22;32104;50.838;4.388;2024-02-21T16:06:11;9.60;99.90
46400;DHT22;32104;50.838;4.388;2024-02-21T16:08:54;9.70;99.90
46400;DHT22;32104;50.838;4.388;2024-02-21T16:11:52;9.60;99.90
46400;DHT22;32104;50.838;4.388;2024-02-21T16:14:27;9.70;99.90
46400;DHT22;32104;50.838;4.388;2024-02-21T16:17:21;9.90;99.90
46400;DHT22;32104;50.838;4.388;2024-02-21T16:23:05;9.80;99.90
46400;DHT22;32104;50.838;4.388;2024-02-21T16:32:04;9.90;99.90
46400;DHT22;32104;50.838;4.388;2024-02-21T16:34:40;9.90;99.90
46400;DHT22;32104;50.838;4.388;2024-02-21T16:38:04;9.80;99.90
46400;DHT22;32104;50.838;4.388;2024-02-21T16:41:02;9.80;99.90
46400;DHT22;32104;50.838;4.388;2024-02-21T16:43:51;9.90;99.90
46400;DHT22;32104;50.838;4.388;2024-02-21T16:46:45;9.90;99.90
46400;DHT22;32104;50.838;4.388;2024-02-21T16:49:18;9.80;99.90
46400;DHT22;32104;50.838;4.388;2024-02-21T16:51:56;9.90;99.90
46400;DHT22;32104;50.838;4.388;2024-02-21T16:54:23;9.90;99.90
46400;DHT22;32104;50.838;4.388;2024-02-21T16:56:53;9.90;99.90
46400;DHT22;32104;50.838;4.388;2024-02-21T16:59:43;9.80;99.90
46400;DHT22;32104;50.838;4.388;2024-02-21T17:02:10;9.90;99.90
46400;DHT22;32104;50.838;4.388;2024-02-21T17:04:43;9.90;99.90
46400;DHT22;32104;50.838;4.388;2024-02-21T17:07:16;9.90;99.90
46400;DHT22;32104;50.838;4.388;2024-02-21T17:09:57;9.80;99.90
46400;DHT22;32104;50.838;4.388;2024-02-21T17:12:55;9.80;99.90
46400;DHT22;32104;50.838;4.388;2024-02-21T17:15:25;9.80;99.90
46400;DHT22;32104;50.838;4.388;2024-02-21T17:18:33;9.80;99.90
46400;DHT22;32104;50.838;4.388;2024-02-21T17:21:10;9.80;99.90
46400;DHT22;32104;50.838;4.388;2024-02-21T17:26:58;9.80;99.90
46400;DHT22;32104;50.838;4.388;2024-02-21T17:29:30;9.70;99.90
46400;DHT22;32104;50.838;4.388;2024-02-21T17:32:02;9.90;99.90
46400;DHT22;32104;50.838;4.388;2024-02-21T17:34:45;9.90;99.90
46400;DHT22;32104;50.838;4.388;2024-02-21T17:37:48;9.90;99.90
46400;DHT22;32104;50.838;4.388;2024-02-21T17:40:24;9.80;99.90
46400;DHT22;32104;50.838;4.388;2024-02-21T17:43:01;9.80;99.90
46400;DHT22;32104;50.838;4.388;2024-02-21T17:45:46;9.80;99.90
46400;DHT22;32104;50.838;4.388;2024-02-21T17:48:39;9.80;99.90
46400;DHT22;32104;50.838;4.388;2024-02-21T17:55:16;9.90;99.90